sensor_id;sensor_type;location;lat;lon;timestamp;pressure;altitude;pressure_sealevel;temperature;humidity
20027;BME280;10174;42.688;23.344;2022-09-09T00:02:00;95504.81;;;16.88;72.69
20027;BME280;10174;42.688;23.344;2022-09-09T00:04:30;95526.94;;;16.96;73.17
20027;BME280;10174;42.688;23.344;2022-09-09T00:07:21;95527.44;;;16.98;73.38
20027;BME280;10174;42.688;23.344;2022-09-09T00:10:00;95427.19;;;16.27;73.84
20027;BME280;10174;42.688;23.344;2022-09-09T00:14:58;95524.53;;;16.75;74.44
20027;BME280;10174;42.688;23.344;2022-09-09T00:20:03;95516.06;;;16.63;75.06
20027;BME280;10174;42.688;23.344;2022-09-09T00:22:30;95517.09;;;16.67;75.16
20027;BME280;10174;42.688;23.344;2022-09-09T00:25:10;95465.56;;;16.34;75.36
20027;BME280;10174;42.688;23.344;2022-09-09T00:27:49;95511.97;;;16.65;75.55
20027;BME280;10174;42.688;23.344;2022-09-09T00:30:34;95492.78;;;16.62;75.85
20027;BME280;10174;42.688;23.344;2022-09-09T00:33:09;95476.50;;;16.62;75.52
20027;BME280;10174;42.688;23.344;2022-09-09T00:35:39;95503.53;;;16.67;75.88
20027;BME280;10174;42.688;23.344;2022-09-09T00:38:15;95495.59;;;16.70;75.59
20027;BME280;10174;42.688;23.344;2022-09-09T00:43:32;95485.22;;;16.59;76.58
20027;BME280;10174;42.688;23.344;2022-09-09T00:57:36;95496.72;;;16.50;77.25
20027;BME280;10174;42.688;23.344;2022-09-09T01:03:13;95493.53;;;16.48;77.81
20027;BME280;10174;42.688;23.344;2022-09-09T01:05:46;95482.25;;;16.41;78.00
20027;BME280;10174;42.688;23.344;2022-09-09T01:11:27;95493.63;;;16.24;78.87
20027;BME280;10174;42.688;23.344;2022-09-09T01:14:14;95495.09;;;16.16;79.01
20027;BME280;10174;42.688;23.344;2022-09-09T01:16:44;95490.34;;;16.08;79.36
20027;BME280;10174;42.688;23.344;2022-09-09T01:19:20;95483.09;;;16.03;79.55
20027;BME280;10174;42.688;23.344;2022-09-09T01:21:58;95451.81;;;15.73;79.51
20027;BME280;10174;42.688;23.344;2022-09-09T01:24:31;95492.16;;;15.94;80.09
20027;BME280;10174;42.688;23.344;2022-09-09T01:27:02;95489.03;;;15.87;80.54
20027;BME280;10174;42.688;23.344;2022-09-09T01:29:29;95485.78;;;15.84;80.66
20027;BME280;10174;42.688;23.344;2022-09-09T01:31:55;95487.03;;;15.92;80.40
20027;BME280;10174;42.688;23.344;2022-09-09T01:34:24;95484.41;;;15.87;80.45
20027;BME280;10174;42.688;23.344;2022-09-09T01:37:10;95495.31;;;16.01;80.25
20027;BME280;10174;42.688;23.344;2022-09-09T01:39:39;95507.19;;;16.05;79.99
20027;BME280;10174;42.688;23.344;2022-09-09T01:42:08;95501.34;;;15.98;79.96
20027;BME280;10174;42.688;23.344;2022-09-09T01:44:34;95443.91;;;15.58;80.01
20027;BME280;10174;42.688;23.344;2022-09-09T01:47:01;95496.59;;;15.90;80.27
20027;BME280;10174;42.688;23.344;2022-09-09T01:49:27;95463.72;;;15.72;80.29
20027;BME280;10174;42.688;23.344;2022-09-09T01:51:53;95501.13;;;15.94;80.42
20027;BME280;10174;42.688;23.344;2022-09-09T01:54:24;95488.59;;;15.79;80.33
20027;BME280;10174;42.688;23.344;2022-09-09T02:02:32;95504.34;;;15.72;81.02
20027;BME280;10174;42.688;23.344;2022-09-09T02:05:12;95513.41;;;15.87;80.94
20027;BME280;10174;42.688;23.344;2022-09-09T02:07:52;95487.50;;;15.80;80.50
20027;BME280;10174;42.688;23.344;2022-09-09T02:10:25;95504.91;;;15.93;80.66
20027;BME280;10174;42.688;23.344;2022-09-09T02:13:01;95506.84;;;15.93;80.67
20027;BME280;10174;42.688;23.344;2022-09-09T02:15:43;95473.47;;;15.73;80.55
20027;BME280;10174;42.688;23.344;2022-09-09T02:18:12;95459.78;;;15.64;80.83
20027;BME280;10174;42.688;23.344;2022-09-09T02:20:39;95483.97;;;15.80;81.13
20027;BME280;10174;42.688;23.344;2022-09-09T02:23:06;95486.38;;;15.81;80.78
20027;BME280;10174;42.688;23.344;2022-09-09T02:25:35;95465.97;;;15.65;80.97
20027;BME280;10174;42.688;23.344;2022-09-09T02:28:04;95501.03;;;15.80;81.00
20027;BME280;10174;42.688;23.344;2022-09-09T02:30:33;95497.81;;;15.78;80.93
20027;BME280;10174;42.688;23.344;2022-09-09T02:33:01;95503.78;;;15.75;81.35
20027;BME280;10174;42.688;23.344;2022-09-09T02:35:30;95495.88;;;15.79;80.83
20027;BME280;10174;42.688;23.344;2022-09-09T02:38:02;95500.31;;;15.70;81.28
20027;BME280;10174;42.688;23.344;2022-09-09T02:40:29;95505.50;;;15.66;81.38
20027;BME280;10174;42.688;23.344;2022-09-09T02:42:55;95418.03;;;15.03;81.26
20027;BME280;10174;42.688;23.344;2022-09-09T02:45:22;95513.72;;;15.61;81.49
20027;BME280;10174;42.688;23.344;2022-09-09T02:47:56;95513.75;;;15.56;81.72
20027;BME280;10174;42.688;23.344;2022-09-09T02:50:56;95516.25;;;15.52;82.11
20027;BME280;10174;42.688;23.344;2022-09-09T02:53:36;95504.75;;;15.41;82.23
20027;BME280;10174;42.688;23.344;2022-09-09T02:56:09;95505.25;;;15.43;82.30
20027;BME280;10174;42.688;23.344;2022-09-09T02:58:36;95488.09;;;15.29;82.46
20027;BME280;10174;42.688;23.344;2022-09-09T03:01:01;95503.66;;;15.42;82.18
20027;BME280;10174;42.688;23.344;2022-09-09T03:03:28;95509.78;;;15.48;82.15
20027;BME280;10174;42.688;23.344;2022-09-09T03:05:54;95514.34;;;15.53;82.16
20027;BME280;10174;42.688;23.344;2022-09-09T03:08:19;95516.25;;;15.52;82.09
20027;BME280;10174;42.688;23.344;2022-09-09T03:10:45;95514.63;;;15.51;81.92
20027;BME280;10174;42.688;23.344;2022-09-09T03:13:10;95514.88;;;15.55;82.03
20027;BME280;10174;42.688;23.344;2022-09-09T03:15:37;95504.28;;;15.34;82.08
20027;BME280;10174;42.688;23.344;2022-09-09T03:18:03;95506.47;;;15.32;82.34
20027;BME280;10174;42.688;23.344;2022-09-09T03:20:29;95511.03;;;15.37;82.42
20027;BME280;10174;42.688;23.344;2022-09-09T03:22:56;95509.88;;;15.43;82.14
20027;BME280;10174;42.688;23.344;2022-09-09T03:25:22;95506.38;;;15.42;82.13
20027;BME280;10174;42.688;23.344;2022-09-09T03:27:52;95511.19;;;15.45;81.97
20027;BME280;10174;42.688;23.344;2022-09-09T03:30:23;95507.44;;;15.41;82.06
20027;BME280;10174;42.688;23.344;2022-09-09T03:32:49;95516.16;;;15.38;82.17
20027;BME280;10174;42.688;23.344;2022-09-09T03:35:15;95515.00;;;15.44;82.13
20027;BME280;10174;42.688;23.344;2022-09-09T03:37:41;95510.16;;;15.41;81.77
20027;BME280;10174;42.688;23.344;2022-09-09T03:40:07;95511.78;;;15.42;81.90
20027;BME280;10174;42.688;23.344;2022-09-09T03:42:33;95497.81;;;15.30;82.18
20027;BME280;10174;42.688;23.344;2022-09-09T03:44:58;95493.69;;;15.38;82.12
20027;BME280;10174;42.688;23.344;2022-09-09T03:47:24;95501.53;;;15.39;81.76
20027;BME280;10174;42.688;23.344;2022-09-09T03:49:50;95504.75;;;15.41;81.65
20027;BME280;10174;42.688;23.344;2022-09-09T03:52:15;95522.03;;;15.45;81.82
20027;BME280;10174;42.688;23.344;2022-09-09T03:54:41;95510.72;;;15.38;81.95
20027;BME280;10174;42.688;23.344;2022-09-09T03:57:08;95523.69;;;15.41;81.91
20027;BME280;10174;42.688;23.344;2022-09-09T03:59:33;95495.66;;;15.32;81.79
20027;BME280;10174;42.688;23.344;2022-09-09T04:02:00;95516.03;;;15.48;81.80
20027;BME280;10174;42.688;23.344;2022-09-09T04:04:25;95532.78;;;15.50;81.75
20027;BME280;10174;42.688;23.344;2022-09-09T04:06:52;95529.03;;;15.46;81.74
20027;BME280;10174;42.688;23.344;2022-09-09T04:09:18;95523.41;;;15.43;81.99
20027;BME280;10174;42.688;23.344;2022-09-09T04:11:43;95435.81;;;14.85;81.87
20027;BME280;10174;42.688;23.344;2022-09-09T04:14:08;95532.84;;;15.45;81.79
20027;BME280;10174;42.688;23.344;2022-09-09T04:16:34;95517.97;;;15.43;82.42
20027;BME280;10174;42.688;23.344;2022-09-09T04:19:02;95515.00;;;15.44;82.00
20027;BME280;10174;42.688;23.344;2022-09-09T04:21:29;95519.25;;;15.50;81.83
20027;BME280;10174;42.688;23.344;2022-09-09T04:23:55;95525.72;;;15.55;81.74
20027;BME280;10174;42.688;23.344;2022-09-09T04:26:20;95518.00;;;15.62;81.56
20027;BME280;10174;42.688;23.344;2022-09-09T04:28:45;95516.72;;;15.59;81.20
20027;BME280;10174;42.688;23.344;2022-09-09T04:31:17;95515.84;;;15.64;81.42
20027;BME280;10174;42.688;23.344;2022-09-09T04:33:44;95525.56;;;15.65;81.50
20027;BME280;10174;42.688;23.344;2022-09-09T04:36:09;95527.97;;;15.66;81.30
20027;BME280;10174;42.688;23.344;2022-09-09T04:38:34;95526.13;;;15.62;81.39
20027;BME280;10174;42.688;23.344;2022-09-09T04:41:00;95517.22;;;15.61;81.38
20027;BME280;10174;42.688;23.344;2022-09-09T04:43:26;95528.72;;;15.72;81.59
20027;BME280;10174;42.688;23.344;2022-09-09T04:45:52;95530.25;;;15.83;80.96
20027;BME280;10174;42.688;23.344;2022-09-09T04:48:18;95512.03;;;15.65;80.96
20027;BME280;10174;42.688;23.344;2022-09-09T04:50:44;95524.88;;;15.78;81.45
20027;BME280;10174;42.688;23.344;2022-09-09T04:53:09;95511.34;;;15.78;81.14
20027;BME280;10174;42.688;23.344;2022-09-09T04:55:35;95523.44;;;15.86;80.87
20027;BME280;10174;42.688;23.344;2022-09-09T04:58:07;95520.00;;;15.99;80.43
20027;BME280;10174;42.688;23.344;2022-09-09T05:00:34;95440.06;;;15.59;80.09
20027;BME280;10174;42.688;23.344;2022-09-09T05:03:04;95513.03;;;16.12;79.51
20027;BME280;10174;42.688;23.344;2022-09-09T05:05:31;95425.66;;;15.63;78.63
20027;BME280;10174;42.688;23.344;2022-09-09T05:08:01;95508.28;;;16.23;78.57
20027;BME280;10174;42.688;23.344;2022-09-09T05:10:27;95498.69;;;16.31;78.74
20027;BME280;10174;42.688;23.344;2022-09-09T05:12:53;95484.63;;;16.29;78.57
20027;BME280;10174;42.688;23.344;2022-09-09T05:15:19;95487.06;;;16.44;77.52
20027;BME280;10174;42.688;23.344;2022-09-09T05:17:45;95508.13;;;16.52;77.03
20027;BME280;10174;42.688;23.344;2022-09-09T05:20:11;95513.66;;;16.61;76.73
20027;BME280;10174;42.688;23.344;2022-09-09T05:22:37;95512.09;;;16.74;76.19
20027;BME280;10174;42.688;23.344;2022-09-09T05:25:03;95501.25;;;16.74;75.80
20027;BME280;10174;42.688;23.344;2022-09-09T05:27:28;95494.63;;;16.80;74.60
20027;BME280;10174;42.688;23.344;2022-09-09T05:29:56;95491.16;;;16.94;73.47
20027;BME280;10174;42.688;23.344;2022-09-09T05:32:22;95493.88;;;16.94;72.91
20027;BME280;10174;42.688;23.344;2022-09-09T05:34:48;95505.06;;;17.06;72.23
20027;BME280;10174;42.688;23.344;2022-09-09T05:37:13;95492.88;;;17.03;71.75
20027;BME280;10174;42.688;23.344;2022-09-09T05:39:39;95503.44;;;17.19;71.91
20027;BME280;10174;42.688;23.344;2022-09-09T05:42:05;95512.31;;;17.24;71.36
20027;BME280;10174;42.688;23.344;2022-09-09T05:44:30;95478.81;;;17.15;71.23
20027;BME280;10174;42.688;23.344;2022-09-09T05:46:56;95499.16;;;17.32;70.76
20027;BME280;10174;42.688;23.344;2022-09-09T05:49:23;95514.22;;;17.38;70.70
20027;BME280;10174;42.688;23.344;2022-09-09T05:51:48;95509.19;;;17.45;70.67
20027;BME280;10174;42.688;23.344;2022-09-09T05:54:15;95501.03;;;17.45;70.45
20027;BME280;10174;42.688;23.344;2022-09-09T05:56:41;95504.56;;;17.59;69.97
20027;BME280;10174;42.688;23.344;2022-09-09T05:59:06;95488.06;;;17.56;69.96
20027;BME280;10174;42.688;23.344;2022-09-09T06:01:33;95516.63;;;17.81;69.97
20027;BME280;10174;42.688;23.344;2022-09-09T06:03:59;95513.28;;;17.84;68.95
20027;BME280;10174;42.688;23.344;2022-09-09T06:06:27;95516.81;;;17.98;69.01
20027;BME280;10174;42.688;23.344;2022-09-09T06:08:55;95531.28;;;18.08;67.35
20027;BME280;10174;42.688;23.344;2022-09-09T06:11:29;95445.31;;;17.61;66.21
20027;BME280;10174;42.688;23.344;2022-09-09T06:13:57;95505.50;;;18.19;66.50
20027;BME280;10174;42.688;23.344;2022-09-09T06:16:25;95500.06;;;18.19;65.75
20027;BME280;10174;42.688;23.344;2022-09-09T06:18:52;95506.84;;;18.30;64.69
20027;BME280;10174;42.688;23.344;2022-09-09T06:21:20;95522.31;;;18.44;64.08
20027;BME280;10174;42.688;23.344;2022-09-09T06:23:47;95517.94;;;18.57;64.32
20027;BME280;10174;42.688;23.344;2022-09-09T06:28:38;95513.00;;;18.59;62.56
20027;BME280;10174;42.688;23.344;2022-09-09T06:31:09;95521.16;;;18.59;62.86
20027;BME280;10174;42.688;23.344;2022-09-09T06:33:36;95444.28;;;18.22;63.50
20027;BME280;10174;42.688;23.344;2022-09-09T06:36:06;95513.19;;;18.85;62.82
20027;BME280;10174;42.688;23.344;2022-09-09T06:38:31;95515.91;;;19.08;62.87
20027;BME280;10174;42.688;23.344;2022-09-09T06:40:59;95495.44;;;19.19;63.06
20027;BME280;10174;42.688;23.344;2022-09-09T06:43:25;95469.50;;;18.90;61.84
20027;BME280;10174;42.688;23.344;2022-09-09T06:45:58;95506.31;;;19.19;61.78
20027;BME280;10174;42.688;23.344;2022-09-09T06:48:24;95494.31;;;19.20;62.21
20027;BME280;10174;42.688;23.344;2022-09-09T06:51:06;95510.09;;;19.40;61.46
20027;BME280;10174;42.688;23.344;2022-09-09T06:53:33;95490.56;;;19.38;60.83
20027;BME280;10174;42.688;23.344;2022-09-09T06:58:28;95517.34;;;19.94;58.22
20027;BME280;10174;42.688;23.344;2022-09-09T07:01:05;95525.69;;;20.06;58.57
20027;BME280;10174;42.688;23.344;2022-09-09T07:03:31;95493.31;;;19.96;58.39
20027;BME280;10174;42.688;23.344;2022-09-09T07:05:57;95517.25;;;20.34;57.77
20027;BME280;10174;42.688;23.344;2022-09-09T07:08:23;95525.72;;;20.59;56.70
20027;BME280;10174;42.688;23.344;2022-09-09T07:10:50;95523.97;;;20.54;56.79
20027;BME280;10174;42.688;23.344;2022-09-09T07:13:27;95503.75;;;20.38;56.78
20027;BME280;10174;42.688;23.344;2022-09-09T07:15:53;95457.38;;;20.03;56.68
20027;BME280;10174;42.688;23.344;2022-09-09T07:18:19;95510.81;;;20.39;57.49
20027;BME280;10174;42.688;23.344;2022-09-09T07:20:55;95505.81;;;20.58;57.86
20027;BME280;10174;42.688;23.344;2022-09-09T07:23:23;95497.97;;;20.83;56.02
20027;BME280;10174;42.688;23.344;2022-09-09T07:25:48;95510.44;;;21.10;55.90
20027;BME280;10174;42.688;23.344;2022-09-09T07:28:15;95495.81;;;21.06;55.45
20027;BME280;10174;42.688;23.344;2022-09-09T07:30:41;95475.41;;;21.04;54.54
20027;BME280;10174;42.688;23.344;2022-09-09T07:33:08;95427.91;;;20.96;53.67
20027;BME280;10174;42.688;23.344;2022-09-09T07:35:34;95507.75;;;21.40;54.79
20027;BME280;10174;42.688;23.344;2022-09-09T07:38:02;95490.50;;;21.48;54.07
20027;BME280;10174;42.688;23.344;2022-09-09T07:40:30;95495.56;;;21.76;53.02
20027;BME280;10174;42.688;23.344;2022-09-09T07:42:55;95504.50;;;21.56;52.97
20027;BME280;10174;42.688;23.344;2022-09-09T07:45:21;95494.97;;;21.62;53.11
20027;BME280;10174;42.688;23.344;2022-09-09T07:47:46;95510.06;;;21.68;52.21
20027;BME280;10174;42.688;23.344;2022-09-09T07:50:13;95518.56;;;21.75;52.47
20027;BME280;10174;42.688;23.344;2022-09-09T07:52:38;95502.22;;;21.87;52.70
20027;BME280;10174;42.688;23.344;2022-09-09T07:55:04;95506.63;;;22.10;51.79
20027;BME280;10174;42.688;23.344;2022-09-09T07:57:30;95489.31;;;22.18;51.85
20027;BME280;10174;42.688;23.344;2022-09-09T07:59:56;95502.94;;;22.69;50.67
20027;BME280;10174;42.688;23.344;2022-09-09T08:02:25;95486.63;;;23.06;48.30
20027;BME280;10174;42.688;23.344;2022-09-09T08:04:53;95479.53;;;23.38;48.17
20027;BME280;10174;42.688;23.344;2022-09-09T08:07:18;95498.38;;;23.64;48.48
20027;BME280;10174;42.688;23.344;2022-09-09T08:09:46;95483.63;;;23.57;46.97
20027;BME280;10174;42.688;23.344;2022-09-09T08:12:11;95480.19;;;24.09;45.90
20027;BME280;10174;42.688;23.344;2022-09-09T08:14:38;95503.75;;;24.63;45.96
20027;BME280;10174;42.688;23.344;2022-09-09T08:17:04;95491.97;;;24.10;46.83
20027;BME280;10174;42.688;23.344;2022-09-09T08:19:29;95497.81;;;23.96;46.82
20027;BME280;10174;42.688;23.344;2022-09-09T08:21:55;95496.09;;;24.44;45.60
20027;BME280;10174;42.688;23.344;2022-09-09T08:24:21;95495.94;;;24.65;46.20
20027;BME280;10174;42.688;23.344;2022-09-09T08:26:48;95494.13;;;24.57;45.44
20027;BME280;10174;42.688;23.344;2022-09-09T08:29:15;95487.41;;;24.83;44.94
20027;BME280;10174;42.688;23.344;2022-09-09T08:31:48;95485.81;;;24.82;45.04
20027;BME280;10174;42.688;23.344;2022-09-09T08:34:14;95488.75;;;24.89;45.31
20027;BME280;10174;42.688;23.344;2022-09-09T08:36:44;95473.94;;;25.54;45.13
20027;BME280;10174;42.688;23.344;2022-09-09T08:39:12;95486.16;;;26.04;44.36
20027;BME280;10174;42.688;23.344;2022-09-09T08:58:02;95471.63;;;25.56;44.01
20027;BME280;10174;42.688;23.344;2022-09-09T09:11:38;95481.75;;;27.86;40.16
20027;BME280;10174;42.688;23.344;2022-09-09T09:14:18;95475.63;;;27.97;39.59
20027;BME280;10174;42.688;23.344;2022-09-09T09:16:52;95484.72;;;28.28;39.05
20027;BME280;10174;42.688;23.344;2022-09-09T09:19:19;95465.97;;;28.10;38.81
20027;BME280;10174;42.688;23.344;2022-09-09T09:24:20;95457.00;;;27.94;39.48
20027;BME280;10174;42.688;23.344;2022-09-09T09:26:47;95469.69;;;27.48;40.39
20027;BME280;10174;42.688;23.344;2022-09-09T09:29:18;95463.03;;;27.99;38.98
20027;BME280;10174;42.688;23.344;2022-09-09T09:32:03;95473.63;;;27.70;40.43
20027;BME280;10174;42.688;23.344;2022-09-09T09:34:29;95474.56;;;27.32;41.77
20027;BME280;10174;42.688;23.344;2022-09-09T09:36:59;95475.16;;;26.79;42.17
20027;BME280;10174;42.688;23.344;2022-09-09T09:39:32;95470.75;;;27.40;40.17
20027;BME280;10174;42.688;23.344;2022-09-09T09:42:10;95366.53;;;26.18;41.35
20027;BME280;10174;42.688;23.344;2022-09-09T09:44:39;95453.81;;;26.95;41.35
20027;BME280;10174;42.688;23.344;2022-09-09T09:47:17;95392.63;;;27.09;40.03
20027;BME280;10174;42.688;23.344;2022-09-09T09:50:02;95455.69;;;27.84;38.81
20027;BME280;10174;42.688;23.344;2022-09-09T09:52:30;95449.91;;;27.66;39.64
20027;BME280;10174;42.688;23.344;2022-09-09T09:54:58;95436.00;;;27.12;40.21
20027;BME280;10174;42.688;23.344;2022-09-09T09:57:28;95429.22;;;26.28;42.42
20027;BME280;10174;42.688;23.344;2022-09-09T10:00:14;95442.28;;;26.51;42.72
20027;BME280;10174;42.688;23.344;2022-09-09T10:02:42;95439.09;;;26.88;42.09
20027;BME280;10174;42.688;23.344;2022-09-09T10:05:24;95423.97;;;27.01;41.05
20027;BME280;10174;42.688;23.344;2022-09-09T10:24:44;95471.56;;;25.52;45.03
20027;BME280;10174;42.688;23.344;2022-09-09T10:30:22;95461.34;;;25.69;44.69
20027;BME280;10174;42.688;23.344;2022-09-09T10:33:12;95446.28;;;25.63;44.65
20027;BME280;10174;42.688;23.344;2022-09-09T10:38:42;95473.53;;;26.03;45.00
20027;BME280;10174;42.688;23.344;2022-09-09T10:51:36;95470.63;;;25.80;44.69
20027;BME280;10174;42.688;23.344;2022-09-09T10:56:58;95454.25;;;25.52;46.00
20027;BME280;10174;42.688;23.344;2022-09-09T10:59:27;95469.84;;;25.80;46.34
20027;BME280;10174;42.688;23.344;2022-09-09T11:02:05;95475.53;;;25.71;46.18
20027;BME280;10174;42.688;23.344;2022-09-09T11:07:49;95466.69;;;25.46;46.63
20027;BME280;10174;42.688;23.344;2022-09-09T11:12:54;95468.41;;;25.22;48.01
20027;BME280;10174;42.688;23.344;2022-09-09T11:15:37;95373.56;;;24.80;47.46
20027;BME280;10174;42.688;23.344;2022-09-09T11:18:06;95454.00;;;25.41;47.04
20027;BME280;10174;42.688;23.344;2022-09-09T11:20:35;95446.44;;;25.22;47.41
20027;BME280;10174;42.688;23.344;2022-09-09T11:23:05;95453.47;;;25.35;47.30
20027;BME280;10174;42.688;23.344;2022-09-09T11:25:40;95435.63;;;25.45;47.43
20027;BME280;10174;42.688;23.344;2022-09-09T11:39:11;95418.53;;;25.52;47.13
20027;BME280;10174;42.688;23.344;2022-09-09T11:41:43;95420.56;;;25.55;48.19
20027;BME280;10174;42.688;23.344;2022-09-09T11:44:11;95409.22;;;25.76;47.95
20027;BME280;10174;42.688;23.344;2022-09-09T11:46:38;95407.94;;;25.54;48.15
20027;BME280;10174;42.688;23.344;2022-09-09T11:49:06;95371.69;;;25.48;48.20
20027;BME280;10174;42.688;23.344;2022-09-09T11:51:33;95395.75;;;26.06;47.08
20027;BME280;10174;42.688;23.344;2022-09-09T11:56:55;95367.16;;;26.30;46.24
20027;BME280;10174;42.688;23.344;2022-09-09T11:59:32;95363.72;;;26.57;46.03
20027;BME280;10174;42.688;23.344;2022-09-09T12:02:22;95375.59;;;27.04;45.33
20027;BME280;10174;42.688;23.344;2022-09-09T12:04:56;95312.72;;;27.63;42.75
20027;BME280;10174;42.688;23.344;2022-09-09T12:07:41;95354.75;;;28.47;41.17
20027;BME280;10174;42.688;23.344;2022-09-09T12:12:35;95289.84;;;28.27;40.26
20027;BME280;10174;42.688;23.344;2022-09-09T12:17:53;95362.25;;;29.25;39.62
20027;BME280;10174;42.688;23.344;2022-09-09T12:20:34;95360.94;;;29.12;40.69
20027;BME280;10174;42.688;23.344;2022-09-09T12:31:26;95346.63;;;28.99;41.35
20027;BME280;10174;42.688;23.344;2022-09-09T12:34:20;95324.44;;;28.92;40.53
20027;BME280;10174;42.688;23.344;2022-09-09T12:36:55;95333.00;;;28.76;42.06
20027;BME280;10174;42.688;23.344;2022-09-09T12:39:38;95267.81;;;28.34;42.48
20027;BME280;10174;42.688;23.344;2022-09-09T12:42:16;95334.03;;;28.27;43.93
20027;BME280;10174;42.688;23.344;2022-09-09T12:44:57;95327.75;;;28.30;44.00
20027;BME280;10174;42.688;23.344;2022-09-09T12:50:27;95260.56;;;27.54;43.92
20027;BME280;10174;42.688;23.344;2022-09-09T12:52:56;95314.34;;;27.67;45.25
20027;BME280;10174;42.688;23.344;2022-09-09T12:55:32;95326.50;;;27.63;45.10
20027;BME280;10174;42.688;23.344;2022-09-09T12:57:59;95306.66;;;27.27;45.39
20027;BME280;10174;42.688;23.344;2022-09-09T13:00:26;95311.66;;;27.44;45.41
20027;BME280;10174;42.688;23.344;2022-09-09T13:03:03;95316.03;;;27.76;45.59
20027;BME280;10174;42.688;23.344;2022-09-09T13:05:39;95312.03;;;27.73;45.11
20027;BME280;10174;42.688;23.344;2022-09-09T13:08:08;95313.19;;;27.99;45.35
20027;BME280;10174;42.688;23.344;2022-09-09T13:13:23;95311.03;;;28.19;43.66
20027;BME280;10174;42.688;23.344;2022-09-09T13:15:54;95309.06;;;27.85;43.70
20027;BME280;10174;42.688;23.344;2022-09-09T13:18:25;95314.00;;;27.99;44.15
20027;BME280;10174;42.688;23.344;2022-09-09T13:20:51;95236.13;;;27.86;43.47
20027;BME280;10174;42.688;23.344;2022-09-09T13:23:19;95309.59;;;28.29;43.58
20027;BME280;10174;42.688;23.344;2022-09-09T13:25:57;95301.97;;;28.18;44.17
20027;BME280;10174;42.688;23.344;2022-09-09T13:28:28;95294.19;;;27.94;44.55
20027;BME280;10174;42.688;23.344;2022-09-09T13:31:00;95285.81;;;27.86;44.07
20027;BME280;10174;42.688;23.344;2022-09-09T13:33:36;95277.59;;;27.90;45.07
20027;BME280;10174;42.688;23.344;2022-09-09T13:36:09;95289.00;;;27.88;44.00
20027;BME280;10174;42.688;23.344;2022-09-09T13:38:38;95274.28;;;28.11;45.64
20027;BME280;10174;42.688;23.344;2022-09-09T13:41:08;95249.81;;;27.76;44.71
20027;BME280;10174;42.688;23.344;2022-09-09T13:43:44;95281.06;;;28.17;43.97
20027;BME280;10174;42.688;23.344;2022-09-09T13:46:36;95265.72;;;27.89;44.22
20027;BME280;10174;42.688;23.344;2022-09-09T13:49:19;95245.00;;;27.69;44.56
20027;BME280;10174;42.688;23.344;2022-09-09T13:52:08;95251.91;;;27.86;45.46
20027;BME280;10174;42.688;23.344;2022-09-09T13:54:34;95264.53;;;28.21;44.71
20027;BME280;10174;42.688;23.344;2022-09-09T13:57:00;95248.69;;;28.14;45.65
20027;BME280;10174;42.688;23.344;2022-09-09T13:59:27;95195.41;;;27.76;45.32
20027;BME280;10174;42.688;23.344;2022-09-09T14:01:52;95185.00;;;27.62;45.40
20027;BME280;10174;42.688;23.344;2022-09-09T14:04:19;95258.56;;;28.15;44.33
20027;BME280;10174;42.688;23.344;2022-09-09T14:06:46;95237.50;;;28.00;44.66
20027;BME280;10174;42.688;23.344;2022-09-09T14:09:14;95266.81;;;28.12;44.90
20027;BME280;10174;42.688;23.344;2022-09-09T14:11:41;95262.84;;;28.13;44.51
20027;BME280;10174;42.688;23.344;2022-09-09T14:14:06;95219.06;;;27.77;44.15
20027;BME280;10174;42.688;23.344;2022-09-09T14:16:32;95218.97;;;27.70;45.01
20027;BME280;10174;42.688;23.344;2022-09-09T14:18:58;95257.75;;;27.81;45.30
20027;BME280;10174;42.688;23.344;2022-09-09T14:21:25;95244.25;;;27.72;45.62
20027;BME280;10174;42.688;23.344;2022-09-09T14:23:50;95237.78;;;27.61;45.42
20027;BME280;10174;42.688;23.344;2022-09-09T14:26:18;95245.91;;;27.46;45.48
20027;BME280;10174;42.688;23.344;2022-09-09T14:28:44;95246.16;;;27.37;45.87
20027;BME280;10174;42.688;23.344;2022-09-09T14:31:10;95246.41;;;27.55;45.48
20027;BME280;10174;42.688;23.344;2022-09-09T14:33:35;95253.84;;;27.51;44.98
20027;BME280;10174;42.688;23.344;2022-09-09T14:36:03;95181.00;;;26.95;45.34
20027;BME280;10174;42.688;23.344;2022-09-09T14:38:34;95253.25;;;27.35;46.05
20027;BME280;10174;42.688;23.344;2022-09-09T14:41:00;95246.91;;;27.34;45.62
20027;BME280;10174;42.688;23.344;2022-09-09T14:43:29;95247.06;;;27.18;46.66
20027;BME280;10174;42.688;23.344;2022-09-09T14:45:56;95238.91;;;26.99;46.72
20027;BME280;10174;42.688;23.344;2022-09-09T14:48:21;95248.66;;;26.93;47.12
20027;BME280;10174;42.688;23.344;2022-09-09T14:50:47;95227.94;;;26.76;47.84
20027;BME280;10174;42.688;23.344;2022-09-09T14:53:16;95246.22;;;26.88;46.91
20027;BME280;10174;42.688;23.344;2022-09-09T14:55:42;95158.91;;;26.19;48.16
20027;BME280;10174;42.688;23.344;2022-09-09T14:58:07;95251.00;;;26.67;47.80
20027;BME280;10174;42.688;23.344;2022-09-09T15:00:32;95181.84;;;26.03;47.60
20027;BME280;10174;42.688;23.344;2022-09-09T15:02:59;95229.69;;;26.41;47.59
20027;BME280;10174;42.688;23.344;2022-09-09T15:05:24;95252.03;;;26.36;47.54
20027;BME280;10174;42.688;23.344;2022-09-09T15:07:50;95253.91;;;26.32;47.78
20027;BME280;10174;42.688;23.344;2022-09-09T15:10:16;95256.16;;;26.26;50.49
20027;BME280;10174;42.688;23.344;2022-09-09T15:12:42;95255.50;;;26.33;50.43
20027;BME280;10174;42.688;23.344;2022-09-09T15:15:09;95240.91;;;26.09;51.67
20027;BME280;10174;42.688;23.344;2022-09-09T15:17:34;95253.25;;;25.96;52.21
20027;BME280;10174;42.688;23.344;2022-09-09T15:20:02;95273.66;;;25.95;52.36
20027;BME280;10174;42.688;23.344;2022-09-09T15:22:28;95209.91;;;25.50;52.71
20027;BME280;10174;42.688;23.344;2022-09-09T15:24:53;95186.25;;;25.46;52.53